createdAt,value
2023-03-21T06:02:31.970Z,20.08
2023-03-21T06:05:03.500Z,22.38
2023-03-21T06:07:30.917Z,21.88
2023-03-21T06:09:57.771Z,19.27
2023-03-21T06:12:25.231Z,25.80
2023-03-21T06:15:09.294Z,22.88
2023-03-21T06:17:51.308Z,23.60
2023-03-21T06:20:18.223Z,22.20
2023-03-21T06:22:51.144Z,29.83
2023-03-21T06:25:18.732Z,24.95
2023-03-21T06:27:46.094Z,21.05
2023-03-21T06:30:13.308Z,29.67
2023-03-21T06:32:51.941Z,22.92
2023-03-21T06:35:18.969Z,21.85
2023-03-21T06:37:49.535Z,27.15
2023-03-21T06:40:20.404Z,23.48
2023-03-21T06:51:34.185Z,27.60
2023-03-21T06:54:17.783Z,28.08
2023-03-21T06:56:58.787Z,24.23
2023-03-21T06:59:29.317Z,22.58
2023-03-21T07:02:18.588Z,29.83
2023-03-21T07:04:51.179Z,25.25
2023-03-21T07:07:26.340Z,22.55
2023-03-21T07:09:53.000Z,29.17
2023-03-21T07:12:20.460Z,23.42
2023-03-21T07:15:09.330Z,24.97
2023-03-21T07:17:37.254Z,24.10
2023-03-21T07:20:08.238Z,22.73
2023-03-21T07:22:36.287Z,28.98
2023-03-21T07:25:05.413Z,24.35
2023-03-21T07:27:40.766Z,28.00
2023-03-21T07:30:09.425Z,23.75
2023-03-21T07:32:37.869Z,24.77
2023-03-21T07:35:09.908Z,21.75
2023-03-21T07:37:38.224Z,30.45
2023-03-21T07:40:10.500Z,28.50
2023-03-21T07:42:40.713Z,28.45
2023-03-21T07:45:16.644Z,28.45
2023-03-21T07:47:47.820Z,27.77
2023-03-21T07:50:15.929Z,26.42
2023-03-21T07:52:43.914Z,29.02
2023-03-21T07:55:21.172Z,21.23
2023-03-21T07:57:51.558Z,20.85
2023-03-21T08:00:25.116Z,24.23
2023-03-21T08:02:58.739Z,25.35
2023-03-21T08:05:36.935Z,20.17
2023-03-21T08:08:17.295Z,29.25
2023-03-21T08:10:44.895Z,22.95
2023-03-21T08:13:11.944Z,22.65
2023-03-21T08:15:42.274Z,20.85
2023-03-21T08:18:10.890Z,24.17
2023-03-21T08:20:38.377Z,20.50
2023-03-21T08:23:06.654Z,21.20
2023-03-21T08:25:37.724Z,23.00
2023-03-21T08:28:04.711Z,22.60
2023-03-21T08:30:32.241Z,23.02
2023-03-21T08:33:02.202Z,22.48
2023-03-21T08:35:31.971Z,18.73
2023-03-21T08:38:06.924Z,22.52
2023-03-21T08:40:34.503Z,22.42
2023-03-21T08:43:01.099Z,21.52
2023-03-21T08:45:28.339Z,20.55
2023-03-21T08:47:56.102Z,24.88
2023-03-21T08:50:26.674Z,23.30
2023-03-21T08:52:53.289Z,21.33
2023-03-21T08:55:20.751Z,21.75
2023-03-21T08:57:47.508Z,21.50
2023-03-21T09:00:18.149Z,21.75
2023-03-21T09:02:46.726Z,25.17
2023-03-21T09:05:14.669Z,27.23
2023-03-21T09:07:41.733Z,25.20
2023-03-21T09:10:21.505Z,21.75
2023-03-21T09:12:54.406Z,24.65
2023-03-21T09:15:25.168Z,21.35
2023-03-21T09:17:57.153Z,25.00
2023-03-21T09:20:33.221Z,22.58
2023-03-21T09:23:01.627Z,26.52
2023-03-21T09:25:31.941Z,25.40
2023-03-21T09:28:00.242Z,29.05
2023-03-21T09:30:27.951Z,29.17
2023-03-21T09:32:55.682Z,27.80
2023-03-21T09:35:24.534Z,28.00
2023-03-21T09:37:51.296Z,28.40
2023-03-21T09:40:45.070Z,23.80
2023-03-21T09:43:49.659Z,23.95
2023-03-21T09:46:25.957Z,27.75
2023-03-21T09:49:00.131Z,28.63
2023-03-21T09:51:33.452Z,24.17
2023-03-21T09:54:06.972Z,25.00
2023-03-21T09:56:36.644Z,27.02
2023-03-21T09:59:08.942Z,21.30
2023-03-21T10:01:45.511Z,21.52
2023-03-21T10:04:19.264Z,20.45
2023-03-21T10:07:01.896Z,21.92
2023-03-21T10:09:32.733Z,27.02
2023-03-21T10:12:07.320Z,25.13
2023-03-21T10:14:58.187Z,24.27
2023-03-21T10:17:43.149Z,26.13
2023-03-21T10:20:23.093Z,23.63
2023-03-21T10:25:32.089Z,21.83
2023-03-21T10:28:00.806Z,26.50
2023-03-21T10:30:35.261Z,23.27
2023-03-21T10:33:05.390Z,27.17
2023-03-21T10:35:37.504Z,24.38
2023-03-21T10:38:06.211Z,22.15
2023-03-21T10:40:34.999Z,19.65
2023-03-21T10:43:27.146Z,29.17
2023-03-21T10:45:57.954Z,21.88
2023-03-21T10:48:24.969Z,26.38
2023-03-21T10:50:56.672Z,21.90
2023-03-21T10:53:32.114Z,30.70
2023-03-21T10:56:01.734Z,26.67
2023-03-21T10:58:38.963Z,23.73
2023-03-21T11:01:10.998Z,24.33
2023-03-21T11:03:43.436Z,25.20
2023-03-21T11:06:13.550Z,19.30
2023-03-21T11:11:15.713Z,19.65
2023-03-21T11:13:44.224Z,24.83
2023-03-21T11:16:19.583Z,23.15
2023-03-21T11:18:51.479Z,23.15
2023-03-21T11:21:20.347Z,23.15
2023-03-21T11:23:50.448Z,22.48
2023-03-21T11:26:32.578Z,17.92
2023-03-21T11:28:59.700Z,24.30
2023-03-21T11:31:40.933Z,24.23
2023-03-21T11:34:09.688Z,22.75
2023-03-21T11:36:41.788Z,19.25
2023-03-21T11:39:11.889Z,22.10
2023-03-21T11:41:41.168Z,22.23
2023-03-21T11:44:27.953Z,21.05
2023-03-21T11:46:55.207Z,27.52
2023-03-21T11:49:23.820Z,26.50
2023-03-21T11:52:13.668Z,21.48
2023-03-21T11:55:11.822Z,16.88
2023-03-21T11:57:38.849Z,17.45
2023-03-21T12:03:21.196Z,21.92
2023-03-21T12:06:01.498Z,20.73
2023-03-21T12:09:05.822Z,20.15
2023-03-21T12:11:55.168Z,15.63
2023-03-21T12:15:00.269Z,20.00
2023-03-21T12:17:43.302Z,16.70
2023-03-21T12:20:52.411Z,17.40
2023-03-21T12:23:34.586Z,18.23
2023-03-21T12:26:19.911Z,16.08
2023-03-21T12:29:04.939Z,21.90
2023-03-21T12:31:49.965Z,15.73
2023-03-21T12:34:50.216Z,19.15
2023-03-21T12:37:38.532Z,18.73
2023-03-21T12:40:30.725Z,15.38
2023-03-21T12:43:23.642Z,16.88
2023-03-21T12:45:56.202Z,16.25
2023-03-21T12:48:50.696Z,15.27
2023-03-21T12:51:21.468Z,16.70
2023-03-21T12:54:13.188Z,11.85
2023-03-21T12:56:55.703Z,13.73
2023-03-21T12:59:28.582Z,18.65
2023-03-21T13:02:01.698Z,13.13
2023-03-21T13:04:44.388Z,14.00
2023-03-21T13:07:17.638Z,20.05
2023-03-21T13:09:45.045Z,11.63
2023-03-21T13:12:44.241Z,13.25
2023-03-21T13:15:24.548Z,17.23
2023-03-21T13:18:16.453Z,16.38
2023-03-21T13:20:46.640Z,11.93
2023-03-21T13:23:13.788Z,13.05
2023-03-21T13:25:49.978Z,12.18
2023-03-21T13:28:28.756Z,15.18
2023-03-21T13:31:17.496Z,17.27
2023-03-21T13:33:58.736Z,16.52
2023-03-21T13:36:29.469Z,16.77
2023-03-21T13:39:02.947Z,14.27
2023-03-21T13:41:39.168Z,11.95
2023-03-21T13:44:09.854Z,12.40
2023-03-21T13:46:53.338Z,11.02
2023-03-21T13:49:32.702Z,10.73
2023-03-21T13:52:03.297Z,11.00
2023-03-21T13:54:43.484Z,10.10
2023-03-21T13:57:23.882Z,10.80
2023-03-21T14:00:24.413Z,13.55
2023-03-21T14:03:07.973Z,7.50
2023-03-21T14:05:37.908Z,10.07
2023-03-21T14:08:15.664Z,10.63
2023-03-21T14:10:52.754Z,12.32
2023-03-21T14:13:26.294Z,11.00
2023-03-21T14:16:04.615Z,9.35
2023-03-21T14:18:53.560Z,11.95
2023-03-21T14:21:28.528Z,12.65
2023-03-21T14:24:03.947Z,14.82
2023-03-21T14:26:45.582Z,10.45
2023-03-21T14:29:27.340Z,12.02
2023-03-21T14:32:01.002Z,12.65
2023-03-21T14:34:34.775Z,9.57
2023-03-21T14:37:07.596Z,13.93
2023-03-21T14:39:42.431Z,9.25
2023-03-21T14:42:13.907Z,14.38
2023-03-21T14:44:56.381Z,9.95
2023-03-21T14:47:28.860Z,11.20
2023-03-21T14:49:58.225Z,9.55
2023-03-21T14:52:30.040Z,8.63
2023-03-21T14:54:58.178Z,8.05
2023-03-21T14:57:29.104Z,13.52
2023-03-21T15:00:00.528Z,8.48
2023-03-21T15:02:38.925Z,7.45
2023-03-21T15:05:29.419Z,9.20
2023-03-21T15:08:21.242Z,9.55
2023-03-21T15:11:07.304Z,11.55
2023-03-21T15:13:54.729Z,12.55
2023-03-21T15:16:22.727Z,8.73
2023-03-21T15:18:50.422Z,10.75
2023-03-21T15:21:26.824Z,8.02
2023-03-21T15:23:58.571Z,8.27
2023-03-21T15:26:26.795Z,10.55
2023-03-21T15:29:01.743Z,6.97
2023-03-21T15:31:34.615Z,6.05
2023-03-21T15:34:01.786Z,8.30
2023-03-21T15:36:34.765Z,6.82
2023-03-21T15:39:05.935Z,11.00
2023-03-21T15:41:33.828Z,7.50
2023-03-21T15:44:02.605Z,7.47
2023-03-21T15:46:43.885Z,6.82
2023-03-21T15:49:13.866Z,8.18
2023-03-21T15:51:43.792Z,6.50
2023-03-21T15:56:52.176Z,8.00
2023-03-21T15:59:19.685Z,6.55
2023-03-21T16:01:51.524Z,4.53
2023-03-21T16:04:18.894Z,5.07
2023-03-21T16:06:57.299Z,8.70
2023-03-21T16:09:25.557Z,6.13
2023-03-21T16:11:59.662Z,5.95
2023-03-21T16:14:30.514Z,5.15
2023-03-21T16:16:59.645Z,4.25
2023-03-21T16:19:29.583Z,5.82
2023-03-21T16:22:00.497Z,4.22
2023-03-21T16:24:27.156Z,7.30
2023-03-21T16:26:55.461Z,5.72
2023-03-21T16:29:23.862Z,5.35
2023-03-21T16:31:53.982Z,7.20
2023-03-21T16:34:20.630Z,22.05
2023-03-21T16:36:48.233Z,8.68
2023-03-21T16:39:22.385Z,4.32
2023-03-21T16:41:51.714Z,4.32
2023-03-21T16:44:19.190Z,6.78
2023-03-21T16:46:52.876Z,5.57
2023-03-21T16:49:24.809Z,4.97
2023-03-21T16:51:53.346Z,6.65
2023-03-21T16:54:21.037Z,6.35
2023-03-21T16:56:51.676Z,6.35
2023-03-21T16:59:18.472Z,7.63
2023-03-21T17:01:48.987Z,5.57
2023-03-21T17:04:17.713Z,5.90
2023-03-21T17:06:51.413Z,5.60
2023-03-21T17:09:23.796Z,9.85
2023-03-21T17:11:51.239Z,6.70
2023-03-21T17:14:18.597Z,4.95
2023-03-21T17:16:46.376Z,5.95
2023-03-21T17:19:21.929Z,8.48
2023-03-21T17:21:49.298Z,3.63
2023-03-21T17:24:16.764Z,5.60
2023-03-21T17:26:44.937Z,6.72
2023-03-21T17:29:15.329Z,4.72
2023-03-21T17:31:44.172Z,6.72
2023-03-21T17:34:11.083Z,4.82
2023-03-21T17:36:41.689Z,3.97
2023-03-21T17:39:15.478Z,5.10
2023-03-21T17:41:42.672Z,4.05
2023-03-21T17:44:09.408Z,4.93
2023-03-21T17:46:37.887Z,4.88
2023-03-21T17:49:05.992Z,5.30
2023-03-21T17:51:33.642Z,4.72
2023-03-21T17:54:00.621Z,7.53
2023-03-21T17:56:31.267Z,6.93
2023-03-21T17:58:59.955Z,4.30
2023-03-21T18:01:28.080Z,7.15
2023-03-21T18:03:54.966Z,6.35
2023-03-21T18:06:24.451Z,5.47
2023-03-21T18:08:53.678Z,8.73
2023-03-21T18:11:22.524Z,6.20
2023-03-21T18:13:49.082Z,7.47
2023-03-21T18:16:22.699Z,5.60
2023-03-21T18:18:50.844Z,6.68
2023-03-21T18:21:20.230Z,5.75
2023-03-21T18:23:47.793Z,8.02
2023-03-21T18:26:18.467Z,5.50
2023-03-21T18:28:46.763Z,6.00
2023-03-21T18:31:20.657Z,7.05
2023-03-21T18:33:48.678Z,8.95
2023-03-21T18:36:24.985Z,7.93
2023-03-21T18:38:52.050Z,9.98
2023-03-21T18:41:20.012Z,7.82
2023-03-21T18:44:05.410Z,6.03
2023-03-21T18:46:34.154Z,5.78
2023-03-21T18:49:20.005Z,8.00
2023-03-21T18:51:48.272Z,6.10
2023-03-21T18:54:14.925Z,11.05
2023-03-21T18:59:34.527Z,5.97
2023-03-21T19:02:06.133Z,6.28
2023-03-21T19:04:33.758Z,8.60
2023-03-21T19:07:00.709Z,7.35
2023-03-21T19:09:31.591Z,12.50
2023-03-21T19:11:59.537Z,8.00
2023-03-21T19:14:26.454Z,8.60
2023-03-21T19:17:41.378Z,6.95
2023-03-21T19:19:43.656Z,5.68
2023-03-21T19:22:11.705Z,7.82
2023-03-21T19:24:39.591Z,6.38
2023-03-21T19:27:07.865Z,9.25
2023-03-21T19:29:34.502Z,10.15
2023-03-21T19:32:01.832Z,10.55
2023-03-21T19:34:29.408Z,5.93
2023-03-21T19:36:57.679Z,6.72
2023-03-21T19:39:25.046Z,8.23
2023-03-21T19:41:55.354Z,8.90
2023-03-21T19:44:30.825Z,6.93
2023-03-21T19:46:58.188Z,7.55
2023-03-21T19:49:37.050Z,6.28
2023-03-21T19:52:13.731Z,6.70
2023-03-21T19:54:40.446Z,5.93
2023-03-21T19:57:09.905Z,8.85
2023-03-21T19:59:36.508Z,7.35
2023-03-21T20:02:24.971Z,7.80
2023-03-21T20:04:51.677Z,8.55
2023-03-21T20:07:18.912Z,8.55
2023-03-21T20:09:52.589Z,8.30
2023-03-21T20:12:22.248Z,11.32
2023-03-21T20:14:49.247Z,7.63
2023-03-21T20:17:17.148Z,9.82
2023-03-21T20:19:43.797Z,7.80
2023-03-21T20:22:21.849Z,6.93
2023-03-21T20:24:55.120Z,8.57
2023-03-21T20:27:25.540Z,9.30
2023-03-21T20:30:09.826Z,8.13
2023-03-21T20:32:43.134Z,11.73
2023-03-21T20:35:20.651Z,10.07
2023-03-21T20:37:52.855Z,12.23
2023-03-21T20:40:21.403Z,10.32
2023-03-21T20:42:49.133Z,9.90
2023-03-21T20:45:17.314Z,10.77
2023-03-21T20:47:44.821Z,8.02
2023-03-21T20:50:13.942Z,9.27
2023-03-21T20:53:01.282Z,8.88
2023-03-21T20:55:34.195Z,11.57
2023-03-21T20:58:02.418Z,13.40
2023-03-21T21:00:29.485Z,9.00
2023-03-21T21:02:58.048Z,10.88
2023-03-21T21:05:30.633Z,10.63
2023-03-21T21:08:02.154Z,8.80
2023-03-21T21:10:29.593Z,8.88
2023-03-21T21:12:57.146Z,9.18
2023-03-21T21:15:23.787Z,11.43
2023-03-21T21:18:08.703Z,10.63
2023-03-21T21:20:37.964Z,9.85
2023-03-21T21:23:05.572Z,12.18
2023-03-21T21:25:33.680Z,10.10
2023-03-21T21:28:02.238Z,10.65
